Terminal Aerodrome Forecast
Issued by NWS

Home | Current Version | Previous Version | Text Only | Print | Product List | Glossary On
Versions: 1 2 3 4 5 6 7 8 9 10 11 12 13 14 15
000
FTUS42 KGSP 061133
TAFHKY
TAF
KHKY 061133Z 0612/0712 33008KT P6SM FEW040 SCT090
     FM061500 34014G22KT P6SM SCT060 BKN150
     FM070000 32009KT P6SM SCT150=

USA.gov is the U.S. government's official web portal to all federal, state and local government web resources and services.